Time;durP1;ratioP1;P1;durP2;ratioP2;P2;SDS_P1;SDS_P2;PMS_P1;PMS_P2;Temp;Humidity;BMP_temperature;BMP_pressure;BME280_temperature;BME280_humidity;BME280_pressure;Samples;Min_cycle;Max_cycle;Signal;HPM_P1;HPM_P2
2023/11/18 00:01:12;;;;;;;11.50;7.93;;;;;;;;;;774085;178;917515;-66
2023/11/18 00:03:39;;;;;;;13.63;8.40;;;;;;;;;;773564;179;918075;-65
2023/11/18 00:06:04;;;;;;;13.37;9.33;;;;;;;;;;783161;179;907803;-65
2023/11/18 00:08:31;;;;;;;14.90;8.93;;;;;;;;;;777523;177;936528;-65
2023/11/18 00:10:56;;;;;;;12.73;8.43;;;;;;;;;;774508;179;918215;-66
2023/11/18 00:13:22;;;;;;;11.67;8.90;;;;;;;;;;780053;179;883223;-65
2023/11/18 00:15:48;;;;;;;12.57;8.50;;;;;;;;;;777881;179;818862;-67
2023/11/18 00:18:14;;;;;;;13.97;8.20;;;;;;;;;;776184;179;919362;-65
2023/11/18 00:20:39;;;;;;;11.43;7.90;;;;;;;;;;777308;179;818859;-67
2023/11/18 00:23:05;;;;;;;11.77;6.90;;;;;;;;;;782200;178;918502;-65
2023/11/18 00:25:33;;;;;;;9.83;7.17;;;;;;;;;;778959;178;918202;-67
2023/11/18 00:27:57;;;;;;;9.07;6.37;;;;;;;;;;777542;178;861859;-66
2023/11/18 00:30:23;;;;;;;9.27;6.37;;;;;;;;;;783661;178;916534;-66
2023/11/18 00:32:49;;;;;;;7.30;5.30;;;;;;;;;;777241;178;908433;-65
2023/11/18 00:35:15;;;;;;;7.20;4.40;;;;;;;;;;775965;178;918353;-66
2023/11/18 00:37:40;;;;;;;6.20;4.70;;;;;;;;;;782700;178;916406;-67
2023/11/18 00:40:07;;;;;;;6.60;4.27;;;;;;;;;;776654;178;919418;-66
2023/11/18 00:42:33;;;;;;;5.60;4.00;;;;;;;;;;777544;179;919408;-66
2023/11/18 00:44:58;;;;;;;5.70;4.30;;;;;;;;;;775157;179;918614;-66
2023/11/18 00:47:24;;;;;;;5.13;3.93;;;;;;;;;;776824;179;919046;-67
2023/11/18 00:49:52;;;;;;;6.80;4.93;;;;;;;;;;779752;179;918737;-67
2023/11/18 00:52:16;;;;;;;5.37;3.83;;;;;;;;;;777296;179;820071;-66
2023/11/18 00:54:42;;;;;;;4.45;3.85;;;;;;;;;;780644;179;920013;-65
2023/11/18 00:57:08;;;;;;;6.30;3.93;;;;;;;;;;777197;179;915925;-66
2023/11/18 00:59:34;;;;;;;6.93;3.80;;;;;;;;;;775782;179;919538;-66
2023/11/18 01:01:59;;;;;;;8.50;3.83;;;;;;;;;;780489;179;919568;-65
2023/11/18 01:04:25;;;;;;;6.53;4.53;;;;;;;;;;776084;179;924033;-66
2023/11/18 01:06:51;;;;;;;5.20;3.80;;;;;;;;;;775101;179;1007533;-66
2023/11/18 01:09:17;;;;;;;7.03;4.10;;;;;;;;;;781204;179;921412;-66
2023/11/18 01:11:43;;;;;;;4.47;3.40;;;;;;;;;;778344;179;902200;-66
2023/11/18 01:14:08;;;;;;;6.40;3.80;;;;;;;;;;775187;179;915892;-65
2023/11/18 01:16:34;;;;;;;7.40;3.97;;;;;;;;;;777220;179;919059;-66
2023/11/18 01:19:00;;;;;;;5.50;3.50;;;;;;;;;;780367;177;920249;-66
2023/11/18 01:21:27;;;;;;;4.83;3.70;;;;;;;;;;780609;179;816818;-66
2023/11/18 01:23:52;;;;;;;6.00;4.30;;;;;;;;;;775570;179;862167;-66
2023/11/18 01:26:18;;;;;;;5.23;3.90;;;;;;;;;;780219;179;916904;-65
2023/11/18 01:28:45;;;;;;;6.20;4.13;;;;;;;;;;777693;179;917985;-68
2023/11/18 01:31:09;;;;;;;3.90;2.80;;;;;;;;;;777431;178;896784;-66
2023/11/18 01:33:37;;;;;;;6.07;3.57;;;;;;;;;;782215;177;939569;-66
2023/11/18 01:36:01;;;;;;;6.20;4.00;;;;;;;;;;780167;178;918657;-67
2023/11/18 01:38:27;;;;;;;6.32;4.75;;;;;;;;;;778632;178;919199;-66
2023/11/18 01:40:54;;;;;;;5.33;4.60;;;;;;;;;;776668;178;918561;-66
2023/11/18 01:43:19;;;;;;;6.70;4.50;;;;;;;;;;775431;175;817208;-66
2023/11/18 01:45:46;;;;;;;7.30;4.60;;;;;;;;;;779994;178;921475;-68
2023/11/18 01:48:11;;;;;;;6.70;4.47;;;;;;;;;;775761;178;917928;-65
2023/11/18 01:50:37;;;;;;;4.70;3.70;;;;;;;;;;780130;179;817001;-66
2023/11/18 01:53:03;;;;;;;7.90;5.23;;;;;;;;;;776553;176;919504;-67
2023/11/18 01:55:29;;;;;;;5.40;4.03;;;;;;;;;;777103;179;917633;-66
2023/11/18 01:57:56;;;;;;;5.60;4.30;;;;;;;;;;782458;179;917547;-66
2023/11/18 02:00:21;;;;;;;10.60;4.50;;;;;;;;;;778774;179;918211;-66
2023/11/18 02:02:46;;;;;;;6.37;4.60;;;;;;;;;;778779;178;724206;-66
2023/11/18 02:05:12;;;;;;;9.70;5.80;;;;;;;;;;781608;179;919154;-65
2023/11/18 02:07:38;;;;;;;10.80;6.60;;;;;;;;;;777382;179;856360;-65
2023/11/18 02:10:08;;;;;;;5.93;4.80;;;;;;;;;;775979;178;910961;-68
2023/11/18 02:12:30;;;;;;;8.07;5.47;;;;;;;;;;776012;179;911481;-66
2023/11/18 02:14:56;;;;;;;6.90;5.30;;;;;;;;;;780327;179;819262;-66
2023/11/18 02:17:24;;;;;;;8.70;4.70;;;;;;;;;;776532;179;821265;-67
2023/11/18 02:19:50;;;;;;;6.47;4.90;;;;;;;;;;775221;179;916110;-66
2023/11/18 02:22:16;;;;;;;7.87;5.43;;;;;;;;;;781038;179;908151;-67
2023/11/18 02:24:42;;;;;;;6.10;5.20;;;;;;;;;;776243;179;918832;-67
2023/11/18 02:27:11;;;;;;;6.67;5.57;;;;;;;;;;777273;179;923544;-67
2023/11/18 02:29:35;;;;;;;7.03;5.87;;;;;;;;;;779054;179;919371;-66
2023/11/18 02:32:11;;;;;;;6.90;5.63;;;;;;;;;;774366;178;919872;-66
2023/11/18 02:34:38;;;;;;;5.20;4.70;;;;;;;;;;779022;178;918331;-70
2023/11/18 02:37:03;;;;;;;7.30;4.90;;;;;;;;;;775499;179;922842;-67
2023/11/18 02:39:30;;;;;;;6.10;4.37;;;;;;;;;;779556;179;816967;-66
2023/11/18 02:41:56;;;;;;;6.37;5.30;;;;;;;;;;774461;179;816331;-66
2023/11/18 02:44:23;;;;;;;6.03;4.60;;;;;;;;;;776219;178;919074;-67
2023/11/18 02:46:48;;;;;;;7.77;5.60;;;;;;;;;;777754;178;926931;-66
2023/11/18 02:49:13;;;;;;;5.90;4.47;;;;;;;;;;783165;178;918633;-66
2023/11/18 02:51:39;;;;;;;6.67;5.00;;;;;;;;;;779290;178;918959;-67
2023/11/18 02:54:06;;;;;;;5.70;4.30;;;;;;;;;;778833;178;917947;-66
2023/11/18 02:56:30;;;;;;;5.60;4.30;;;;;;;;;;781228;178;816510;-67
2023/11/18 02:58:56;;;;;;;7.40;4.27;;;;;;;;;;778618;178;817484;-66
2023/11/18 03:01:22;;;;;;;4.93;4.37;;;;;;;;;;774006;178;919218;-67
2023/11/18 03:03:48;;;;;;;5.63;3.80;;;;;;;;;;781654;175;818645;-67
2023/11/18 03:06:14;;;;;;;6.33;4.30;;;;;;;;;;775886;179;919396;-66
2023/11/18 03:08:41;;;;;;;4.43;3.67;;;;;;;;;;778148;175;920219;-67
2023/11/18 03:11:08;;;;;;;4.90;4.23;;;;;;;;;;775071;179;917859;-66
2023/11/18 03:13:32;;;;;;;7.90;3.77;;;;;;;;;;774185;180;819370;-67
2023/11/18 03:15:57;;;;;;;6.10;3.93;;;;;;;;;;778354;178;913713;-67
2023/11/18 03:18:24;;;;;;;4.60;3.50;;;;;;;;;;776340;179;919639;-67
2023/11/18 03:20:49;;;;;;;5.97;3.65;;;;;;;;;;780511;179;816564;-67
2023/11/18 03:23:14;;;;;;;4.80;3.47;;;;;;;;;;776121;179;918086;-66
2023/11/18 03:25:40;;;;;;;4.47;3.03;;;;;;;;;;776266;178;917771;-67
2023/11/18 03:28:06;;;;;;;4.73;3.20;;;;;;;;;;782724;178;925304;-67
2023/11/18 03:30:32;;;;;;;4.90;3.20;;;;;;;;;;778566;179;924017;-67
2023/11/18 03:32:58;;;;;;;4.40;2.93;;;;;;;;;;776449;176;919479;-67
2023/11/18 03:35:24;;;;;;;3.70;2.63;;;;;;;;;;782978;179;918321;-67
2023/11/18 03:37:51;;;;;;;4.00;2.83;;;;;;;;;;775123;176;919062;-67
2023/11/18 03:40:15;;;;;;;4.25;3.03;;;;;;;;;;776660;179;923724;-67
2023/11/18 03:42:41;;;;;;;4.50;2.67;;;;;;;;;;776839;179;919106;-66
2023/11/18 03:45:09;;;;;;;4.10;2.80;;;;;;;;;;781452;179;917550;-67
2023/11/18 03:47:33;;;;;;;3.43;2.27;;;;;;;;;;776420;179;918470;-66
2023/11/18 03:49:59;;;;;;;3.00;2.13;;;;;;;;;;773947;179;917555;-66
2023/11/18 03:52:26;;;;;;;4.33;2.80;;;;;;;;;;772412;180;754561;-68
2023/11/18 03:54:51;;;;;;;4.03;2.63;;;;;;;;;;776815;179;938637;-66
2023/11/18 03:57:17;;;;;;;4.90;2.70;;;;;;;;;;778780;178;918198;-67
2023/11/18 03:59:43;;;;;;;3.63;2.57;;;;;;;;;;782710;178;930227;-66
2023/11/18 04:02:11;;;;;;;3.67;2.40;;;;;;;;;;778339;178;919738;-68
2023/11/18 04:04:34;;;;;;;3.20;2.23;;;;;;;;;;779193;178;919497;-67
2023/11/18 04:07:01;;;;;;;4.40;2.83;;;;;;;;;;778625;175;920700;-67
2023/11/18 04:09:26;;;;;;;3.00;2.07;;;;;;;;;;774938;178;918054;-66
2023/11/18 04:11:52;;;;;;;3.90;2.33;;;;;;;;;;778974;178;848428;-67
2023/11/18 04:14:18;;;;;;;3.57;2.40;;;;;;;;;;775293;179;918547;-66
2023/11/18 04:16:44;;;;;;;2.80;1.97;;;;;;;;;;780784;179;918841;-68
2023/11/18 04:19:10;;;;;;;3.40;2.13;;;;;;;;;;774872;178;919387;-66
2023/11/18 04:21:36;;;;;;;3.80;2.40;;;;;;;;;;774802;179;919606;-66
2023/11/18 04:24:02;;;;;;;2.60;1.73;;;;;;;;;;778219;177;918739;-68
2023/11/18 04:26:27;;;;;;;5.73;2.47;;;;;;;;;;779342;179;841739;-66
2023/11/18 04:28:53;;;;;;;3.33;2.10;;;;;;;;;;779682;178;821649;-66
2023/11/18 04:31:19;;;;;;;4.40;2.20;;;;;;;;;;778430;179;916999;-67
2023/11/18 04:33:45;;;;;;;3.17;2.00;;;;;;;;;;775195;179;916039;-66
2023/11/18 04:36:11;;;;;;;2.80;1.80;;;;;;;;;;775134;179;817792;-68
2023/11/18 04:38:36;;;;;;;4.07;1.90;;;;;;;;;;775281;179;917678;-66
2023/11/18 04:41:03;;;;;;;3.20;1.80;;;;;;;;;;774001;179;920135;-67
2023/11/18 04:43:29;;;;;;;2.70;1.53;;;;;;;;;;776488;179;942801;-66
2023/11/18 04:45:54;;;;;;;2.93;1.90;;;;;;;;;;774721;179;919780;-67
2023/11/18 04:48:21;;;;;;;2.67;1.67;;;;;;;;;;782334;176;919747;-67
2023/11/18 04:50:46;;;;;;;4.27;1.80;;;;;;;;;;771443;179;919295;-68
2023/11/18 04:53:12;;;;;;;2.83;2.17;;;;;;;;;;774793;179;921685;-66
2023/11/18 04:55:37;;;;;;;2.93;1.80;;;;;;;;;;781602;179;808880;-65
2023/11/18 04:58:05;;;;;;;2.90;1.60;;;;;;;;;;776528;178;906109;-67
2023/11/18 05:00:29;;;;;;;3.40;1.80;;;;;;;;;;777604;179;918196;-66
2023/11/18 05:02:55;;;;;;;10.50;2.00;;;;;;;;;;778600;179;918806;-66
2023/11/18 05:05:22;;;;;;;2.60;1.70;;;;;;;;;;775834;179;919588;-67
2023/11/18 05:07:47;;;;;;;2.83;1.60;;;;;;;;;;777137;177;935471;-67
2023/11/18 05:10:13;;;;;;;2.47;1.47;;;;;;;;;;777237;178;918270;-67
2023/11/18 05:12:39;;;;;;;2.87;1.87;;;;;;;;;;781608;178;912596;-66
2023/11/18 05:15:06;;;;;;;3.20;1.90;;;;;;;;;;774715;178;990020;-66
2023/11/18 05:17:31;;;;;;;2.50;1.57;;;;;;;;;;777461;178;918734;-67
2023/11/18 05:19:56;;;;;;;2.57;1.57;;;;;;;;;;783696;178;919052;-65
2023/11/18 05:22:22;;;;;;;2.73;1.80;;;;;;;;;;777523;178;826342;-68
2023/11/18 05:24:48;;;;;;;2.87;1.60;;;;;;;;;;773795;178;1020977;-68
2023/11/18 05:27:14;;;;;;;4.47;2.03;;;;;;;;;;779830;179;918683;-66
2023/11/18 05:29:41;;;;;;;2.80;1.70;;;;;;;;;;775528;179;927109;-68
2023/11/18 05:32:07;;;;;;;3.03;1.63;;;;;;;;;;778051;179;917714;-67
2023/11/18 05:34:33;;;;;;;2.70;1.60;;;;;;;;;;775897;179;1016395;-67
2023/11/18 05:36:59;;;;;;;2.65;1.75;;;;;;;;;;772295;179;918601;-68
2023/11/18 05:39:27;;;;;;;2.73;1.83;;;;;;;;;;779086;179;884445;-66
2023/11/18 05:41:51;;;;;;;2.58;1.55;;;;;;;;;;774548;179;939962;-68
2023/11/18 05:44:19;;;;;;;3.63;1.60;;;;;;;;;;781491;176;896556;-66
2023/11/18 05:46:46;;;;;;;2.37;1.30;;;;;;;;;;775528;179;918736;-66
2023/11/18 05:49:09;;;;;;;2.77;1.63;;;;;;;;;;773541;179;919034;-66
2023/11/18 05:51:35;;;;;;;2.23;1.30;;;;;;;;;;782003;179;818233;-67
2023/11/18 05:54:01;;;;;;;3.10;1.57;;;;;;;;;;776817;175;919599;-66
2023/11/18 05:56:27;;;;;;;3.03;2.00;;;;;;;;;;776746;179;918369;-68
2023/11/18 05:58:53;;;;;;;6.37;2.10;;;;;;;;;;778552;179;918979;-66
2023/11/18 06:01:19;;;;;;;2.53;1.43;;;;;;;;;;770136;180;918620;-67
2023/11/18 06:03:45;;;;;;;3.10;1.77;;;;;;;;;;778441;178;814759;-66
2023/11/18 06:06:11;;;;;;;2.50;1.80;;;;;;;;;;777673;179;919144;-66
2023/11/18 06:08:40;;;;;;;3.83;1.67;;;;;;;;;;782125;179;819267;-66
2023/11/18 06:11:12;;;;;;;2.50;1.33;;;;;;;;;;777414;178;918412;-66
2023/11/18 06:13:28;;;;;;;2.40;1.40;;;;;;;;;;773863;179;919628;-66
2023/11/18 06:15:55;;;;;;;2.97;1.57;;;;;;;;;;781294;179;919890;-66
2023/11/18 06:18:20;;;;;;;2.40;1.50;;;;;;;;;;776773;179;919724;-67
2023/11/18 06:20:46;;;;;;;2.40;1.33;;;;;;;;;;778086;178;919355;-67
2023/11/18 06:23:15;;;;;;;3.40;1.60;;;;;;;;;;783436;177;917983;-67
2023/11/18 06:25:38;;;;;;;3.40;1.57;;;;;;;;;;775852;178;921669;-68
2023/11/18 06:28:03;;;;;;;2.93;1.70;;;;;;;;;;779016;177;915069;-68
2023/11/18 06:30:30;;;;;;;2.00;1.10;;;;;;;;;;775362;178;919032;-67
2023/11/18 06:32:55;;;;;;;6.00;1.67;;;;;;;;;;779662;178;918831;-68
2023/11/18 06:35:21;;;;;;;2.53;1.63;;;;;;;;;;777377;178;915773;-66
2023/11/18 06:37:47;;;;;;;2.90;1.80;;;;;;;;;;776245;177;816762;-66
2023/11/18 06:40:18;;;;;;;2.73;1.47;;;;;;;;;;781516;179;918803;-66
2023/11/18 06:42:43;;;;;;;3.90;2.10;;;;;;;;;;775662;178;927126;-66
2023/11/18 06:45:09;;;;;;;3.80;1.70;;;;;;;;;;776429;179;919561;-68
2023/11/18 06:47:36;;;;;;;3.40;2.13;;;;;;;;;;777151;178;910993;-67
2023/11/18 06:50:00;;;;;;;4.30;3.03;;;;;;;;;;772755;180;891044;-67
2023/11/18 06:52:26;;;;;;;4.07;2.60;;;;;;;;;;780093;179;913231;-66
2023/11/18 06:54:54;;;;;;;4.40;2.53;;;;;;;;;;777309;179;918457;-66
2023/11/18 06:57:18;;;;;;;3.90;2.30;;;;;;;;;;779742;175;929972;-66
2023/11/18 06:59:43;;;;;;;3.43;2.27;;;;;;;;;;775780;179;918238;-66
2023/11/18 07:02:10;;;;;;;4.80;2.90;;;;;;;;;;772450;179;946792;-68
2023/11/18 07:04:35;;;;;;;4.60;2.60;;;;;;;;;;783292;178;816602;-68
2023/11/18 07:07:01;;;;;;;4.80;3.20;;;;;;;;;;776854;179;918319;-68
2023/11/18 07:09:27;;;;;;;4.20;2.80;;;;;;;;;;780957;179;616258;-66
2023/11/18 07:11:55;;;;;;;3.57;2.40;;;;;;;;;;782098;179;619237;-66
2023/11/18 07:14:19;;;;;;;3.10;2.43;;;;;;;;;;779751;179;780544;-67
2023/11/18 07:16:44;;;;;;;4.30;2.90;;;;;;;;;;778545;179;920639;-67
2023/11/18 07:19:17;;;;;;;3.53;2.90;;;;;;;;;;773338;178;913691;-68
2023/11/18 07:21:36;;;;;;;4.47;3.10;;;;;;;;;;770985;180;894218;-66
2023/11/18 07:24:02;;;;;;;3.20;2.70;;;;;;;;;;778163;176;799742;-67
2023/11/18 07:26:28;;;;;;;3.60;2.47;;;;;;;;;;774151;179;925636;-66
2023/11/18 07:28:54;;;;;;;3.43;2.53;;;;;;;;;;783725;178;908517;-66
2023/11/18 07:31:19;;;;;;;3.60;2.37;;;;;;;;;;777381;176;919292;-66
2023/11/18 07:33:49;;;;;;;4.10;2.63;;;;;;;;;;781341;175;916219;-66
2023/11/18 07:36:11;;;;;;;3.50;2.77;;;;;;;;;;779844;178;889799;-67
2023/11/18 07:38:37;;;;;;;3.97;2.60;;;;;;;;;;778346;177;815418;-66
2023/11/18 07:41:03;;;;;;;11.13;5.00;;;;;;;;;;775249;178;917310;-67
2023/11/18 07:43:30;;;;;;;8.07;4.50;;;;;;;;;;783593;178;765813;-66
2023/11/18 07:45:55;;;;;;;5.47;3.50;;;;;;;;;;778183;178;917570;-68
2023/11/18 07:48:21;;;;;;;4.87;3.43;;;;;;;;;;775841;178;919175;-67
2023/11/18 07:50:48;;;;;;;6.60;3.97;;;;;;;;;;773973;179;918630;-67
2023/11/18 07:53:14;;;;;;;5.70;2.77;;;;;;;;;;782405;179;914869;-67
2023/11/18 07:55:39;;;;;;;4.87;3.50;;;;;;;;;;777251;178;926424;-66
2023/11/18 07:58:10;;;;;;;5.50;3.20;;;;;;;;;;775291;177;877155;-66
2023/11/18 08:00:33;;;;;;;4.40;2.67;;;;;;;;;;780787;179;813999;-66
2023/11/18 08:03:00;;;;;;;4.17;2.77;;;;;;;;;;775751;179;825064;-68
2023/11/18 08:05:24;;;;;;;3.77;2.33;;;;;;;;;;778007;179;896793;-66
2023/11/18 08:07:49;;;;;;;3.87;2.40;;;;;;;;;;782414;179;816522;-66
2023/11/18 08:10:18;;;;;;;4.27;2.30;;;;;;;;;;778495;179;904530;-67
2023/11/18 08:12:43;;;;;;;2.70;2.00;;;;;;;;;;776294;179;914545;-66
2023/11/18 08:15:09;;;;;;;2.80;1.97;;;;;;;;;;779769;179;649183;-68
2023/11/18 08:17:33;;;;;;;3.63;2.40;;;;;;;;;;785393;179;618902;-68
2023/11/18 08:19:59;;;;;;;4.63;2.40;;;;;;;;;;780372;179;627511;-67
2023/11/18 08:22:25;;;;;;;3.20;2.30;;;;;;;;;;781535;177;645510;-66
2023/11/18 08:24:51;;;;;;;5.20;2.90;;;;;;;;;;784207;179;626112;-68
2023/11/18 08:27:16;;;;;;;3.83;2.60;;;;;;;;;;777031;179;816571;-66
2023/11/18 08:29:42;;;;;;;4.23;2.30;;;;;;;;;;775710;179;867842;-66
2023/11/18 08:32:09;;;;;;;5.20;2.67;;;;;;;;;;781285;179;917645;-67
2023/11/18 08:34:35;;;;;;;3.97;2.53;;;;;;;;;;775932;179;938071;-66
2023/11/18 08:37:00;;;;;;;3.10;2.30;;;;;;;;;;777000;179;898683;-65
2023/11/18 08:39:28;;;;;;;2.77;2.00;;;;;;;;;;773800;179;918425;-66
2023/11/18 08:41:52;;;;;;;3.37;2.00;;;;;;;;;;771240;178;919072;-66
2023/11/18 08:44:18;;;;;;;4.10;1.90;;;;;;;;;;782439;178;918825;-68
2023/11/18 08:46:44;;;;;;;3.30;2.67;;;;;;;;;;782836;178;818008;-67
2023/11/18 08:49:12;;;;;;;5.23;2.73;;;;;;;;;;783385;178;917440;-65
2023/11/18 08:51:41;;;;;;;3.97;2.50;;;;;;;;;;777371;178;919868;-66
2023/11/18 08:54:22;;;;;;;3.47;2.78;;;;;;;;;;779054;178;814788;-67
2023/11/18 08:56:34;;;;;;;4.03;3.10;;;;;;;;;;780038;178;919625;-66
2023/11/18 08:58:59;;;;;;;5.50;3.00;;;;;;;;;;776573;178;918706;-66
2023/11/18 09:01:23;;;;;;;5.90;2.33;;;;;;;;;;776578;178;918600;-66
2023/11/18 09:03:52;;;;;;;4.10;2.77;;;;;;;;;;776410;179;919558;-66
2023/11/18 09:06:18;;;;;;;4.53;2.50;;;;;;;;;;769115;180;921912;-66
2023/11/18 09:08:44;;;;;;;4.07;2.85;;;;;;;;;;775364;178;919803;-66
2023/11/18 09:11:14;;;;;;;4.67;3.07;;;;;;;;;;779412;179;919270;-66
2023/11/18 09:13:38;;;;;;;5.40;3.70;;;;;;;;;;782850;179;845178;-66
2023/11/18 09:16:08;;;;;;;4.63;3.30;;;;;;;;;;771921;179;817815;-67
2023/11/18 09:18:32;;;;;;;10.20;3.30;;;;;;;;;;775269;179;921813;-66
2023/11/18 09:20:59;;;;;;;4.50;3.05;;;;;;;;;;780313;179;818170;-66
2023/11/18 09:23:23;;;;;;;4.00;2.67;;;;;;;;;;777938;180;919076;-67
2023/11/18 09:25:48;;;;;;;6.73;3.67;;;;;;;;;;775339;178;922132;-67
2023/11/18 09:28:14;;;;;;;8.17;4.57;;;;;;;;;;775623;179;840715;-66
2023/11/18 09:30:49;;;;;;;3.20;2.20;;;;;;;;;;783707;179;790469;-65
2023/11/18 09:33:13;;;;;;;5.07;2.93;;;;;;;;;;779644;179;818147;-67
2023/11/18 09:35:34;;;;;;;3.87;2.10;;;;;;;;;;783000;178;623962;-66
2023/11/18 09:37:59;;;;;;;3.20;1.40;;;;;;;;;;782322;179;947662;-66
2023/11/18 09:40:26;;;;;;;3.37;2.10;;;;;;;;;;772093;179;932978;-65
2023/11/18 09:42:51;;;;;;;3.07;2.20;;;;;;;;;;774879;177;931820;-67
2023/11/18 09:45:19;;;;;;;3.37;1.87;;;;;;;;;;779619;179;928016;-67
2023/11/18 09:47:42;;;;;;;3.20;1.80;;;;;;;;;;769589;179;810602;-65
2023/11/18 09:50:10;;;;;;;3.50;1.73;;;;;;;;;;775979;178;915781;-68
2023/11/18 09:52:36;;;;;;;3.60;1.90;;;;;;;;;;777110;179;894968;-66
2023/11/18 09:55:02;;;;;;;2.87;1.67;;;;;;;;;;786259;178;815666;-67
2023/11/18 09:57:27;;;;;;;5.00;2.40;;;;;;;;;;782115;178;817733;-67
2023/11/18 09:59:55;;;;;;;5.07;2.50;;;;;;;;;;774624;178;821111;-66
2023/11/18 10:02:22;;;;;;;6.20;2.50;;;;;;;;;;785158;175;818032;-68
2023/11/18 10:04:49;;;;;;;5.22;4.72;;;;;;;;;;774084;178;839586;-67
2023/11/18 10:07:16;;;;;;;2.83;1.50;;;;;;;;;;773100;178;918958;-69
2023/11/18 10:09:39;;;;;;;4.03;1.80;;;;;;;;;;777890;178;818417;-65
2023/11/18 10:12:06;;;;;;;5.30;2.00;;;;;;;;;;777482;180;618607;-66
2023/11/18 10:14:33;;;;;;;6.07;2.57;;;;;;;;;;781090;179;687424;-68
2023/11/18 10:17:04;;;;;;;9.37;6.30;;;;;;;;;;777873;179;918890;-68
2023/11/18 10:19:25;;;;;;;4.70;3.10;;;;;;;;;;784039;179;816288;-65
2023/11/18 10:21:50;;;;;;;5.13;2.47;;;;;;;;;;781514;179;711319;-66
2023/11/18 10:24:24;;;;;;;8.67;4.50;;;;;;;;;;776926;179;828190;-67
2023/11/18 10:26:56;;;;;;;6.33;4.30;;;;;;;;;;774564;179;916066;-66
2023/11/18 10:29:20;;;;;;;6.43;5.00;;;;;;;;;;781433;180;918535;-66
2023/11/18 10:31:46;;;;;;;9.63;5.83;;;;;;;;;;770724;179;918878;-66
2023/11/18 10:34:12;;;;;;;7.67;4.60;;;;;;;;;;778596;175;927175;-67
2023/11/18 10:36:38;;;;;;;8.70;6.13;;;;;;;;;;781529;179;918714;-69
2023/11/18 10:39:13;;;;;;;18.93;12.30;;;;;;;;;;774267;176;918192;-66
2023/11/18 10:41:30;;;;;;;25.87;17.13;;;;;;;;;;776894;179;919344;-65
2023/11/18 10:44:13;;;;;;;4.73;4.00;;;;;;;;;;771506;179;915848;-66
2023/11/18 10:46:35;;;;;;;9.18;7.53;;;;;;;;;;779517;179;887123;-66
2023/11/18 10:49:00;;;;;;;7.43;4.73;;;;;;;;;;767217;180;918289;-66
2023/11/18 10:51:26;;;;;;;8.70;5.40;;;;;;;;;;775910;179;919242;-64
2023/11/18 10:53:58;;;;;;;20.00;12.97;;;;;;;;;;774925;179;819711;-64
2023/11/18 10:56:24;;;;;;;20.70;11.67;;;;;;;;;;780766;179;813447;-65
2023/11/18 10:58:46;;;;;;;11.73;7.10;;;;;;;;;;773714;179;920189;-64
2023/11/18 11:01:12;;;;;;;13.10;6.77;;;;;;;;;;774574;179;919702;-65
2023/11/18 11:03:56;;;;;;;12.57;7.40;;;;;;;;;;779977;179;918937;-67
2023/11/18 11:06:23;;;;;;;12.93;7.97;;;;;;;;;;783304;179;816195;-67
2023/11/18 11:08:48;;;;;;;141.60;49.53;;;;;;;;;;783375;176;915873;-67
2023/11/18 11:11:16;;;;;;;76.30;31.00;;;;;;;;;;783023;178;620933;-67
2023/11/18 11:13:41;;;;;;;37.10;17.57;;;;;;;;;;776294;178;637363;-67
2023/11/18 11:16:05;;;;;;;21.67;11.00;;;;;;;;;;786379;178;621112;-67
2023/11/18 11:18:34;;;;;;;23.03;10.73;;;;;;;;;;782323;178;627737;-67
2023/11/18 11:21:03;;;;;;;13.83;8.77;;;;;;;;;;777280;179;917617;-65
2023/11/18 11:23:26;;;;;;;22.37;11.63;;;;;;;;;;784665;178;620468;-66
2023/11/18 11:25:57;;;;;;;21.40;11.30;;;;;;;;;;778489;179;814811;-65
2023/11/18 11:28:22;;;;;;;13.33;7.37;;;;;;;;;;774921;179;789532;-66
2023/11/18 11:30:49;;;;;;;7.80;4.20;;;;;;;;;;774806;178;913183;-66
2023/11/18 11:33:21;;;;;;;7.87;3.93;;;;;;;;;;772000;180;630422;-68
2023/11/18 11:35:48;;;;;;;7.13;4.00;;;;;;;;;;779952;179;619134;-67
2023/11/18 11:38:13;;;;;;;6.53;4.27;;;;;;;;;;776497;179;913934;-67
2023/11/18 11:40:39;;;;;;;6.20;3.77;;;;;;;;;;782994;179;666608;-67
2023/11/18 11:43:04;;;;;;;5.93;3.47;;;;;;;;;;778137;178;630409;-67
2023/11/18 11:45:30;;;;;;;6.90;3.63;;;;;;;;;;776053;178;834079;-66
2023/11/18 11:48:13;;;;;;;8.80;4.40;;;;;;;;;;770005;179;919294;-66
2023/11/18 11:50:31;;;;;;;10.80;5.93;;;;;;;;;;772832;179;921383;-66
2023/11/18 11:52:53;;;;;;;8.47;4.73;;;;;;;;;;774227;179;817583;-67
2023/11/18 11:55:19;;;;;;;6.70;4.47;;;;;;;;;;774156;179;919111;-66
2023/11/18 11:57:45;;;;;;;10.75;4.75;;;;;;;;;;774759;179;884015;-67
2023/11/18 12:00:16;;;;;;;12.97;7.70;;;;;;;;;;768735;180;814451;-65
2023/11/18 12:02:48;;;;;;;10.77;6.77;;;;;;;;;;776458;178;909195;-66
2023/11/18 12:05:18;;;;;;;5.60;3.10;;;;;;;;;;778640;179;815812;-67
2023/11/18 12:07:39;;;;;;;4.90;3.70;;;;;;;;;;774265;179;917716;-66
2023/11/18 12:10:06;;;;;;;5.00;4.10;;;;;;;;;;776292;179;919115;-66
2023/11/18 12:12:31;;;;;;;5.53;3.50;;;;;;;;;;779167;179;764713;-66
2023/11/18 12:15:00;;;;;;;5.15;3.35;;;;;;;;;;780085;179;892978;-66
2023/11/18 12:17:24;;;;;;;5.60;3.40;;;;;;;;;;773000;180;919834;-65
2023/11/18 12:19:50;;;;;;;8.47;6.00;;;;;;;;;;772702;179;905068;-66
2023/11/18 12:22:19;;;;;;;5.83;4.33;;;;;;;;;;771408;178;918101;-65
2023/11/18 12:24:46;;;;;;;6.47;4.40;;;;;;;;;;787260;178;677745;-65
2023/11/18 12:27:12;;;;;;;5.43;3.40;;;;;;;;;;780303;178;913785;-65
2023/11/18 12:29:36;;;;;;;6.70;3.80;;;;;;;;;;779186;178;825091;-66
2023/11/18 12:32:02;;;;;;;4.50;3.17;;;;;;;;;;781748;177;815606;-68
2023/11/18 12:34:33;;;;;;;4.60;3.30;;;;;;;;;;775763;178;915921;-66
2023/11/18 12:37:07;;;;;;;5.70;2.73;;;;;;;;;;772200;178;925255;-66
2023/11/18 12:39:34;;;;;;;5.03;3.20;;;;;;;;;;774315;178;939446;-66
2023/11/18 12:42:06;;;;;;;4.90;3.23;;;;;;;;;;780490;179;920701;-67
2023/11/18 12:44:31;;;;;;;15.70;12.20;;;;;;;;;;775959;180;919514;-67
2023/11/18 12:46:55;;;;;;;6.15;3.92;;;;;;;;;;779899;178;883099;-66
2023/11/18 12:49:23;;;;;;;9.17;3.93;;;;;;;;;;779450;177;920479;-65
2023/11/18 12:51:48;;;;;;;23.37;11.40;;;;;;;;;;783536;179;818129;-67
2023/11/18 12:54:13;;;;;;;6.93;3.60;;;;;;;;;;775539;179;919261;-65
2023/11/18 12:56:39;;;;;;;4.83;2.93;;;;;;;;;;776391;179;817138;-68
2023/11/18 12:59:06;;;;;;;13.88;8.38;;;;;;;;;;777910;179;880622;-66
2023/11/18 13:01:33;;;;;;;7.23;4.67;;;;;;;;;;778161;179;921083;-67
2023/11/18 13:03:56;;;;;;;5.30;4.43;;;;;;;;;;775967;177;914094;-66
2023/11/18 13:06:26;;;;;;;2.77;1.83;;;;;;;;;;777544;179;819108;-67
2023/11/18 13:08:48;;;;;;;2.63;1.73;;;;;;;;;;770924;180;916091;-67
2023/11/18 13:11:15;;;;;;;3.50;2.00;;;;;;;;;;778652;178;921137;-68
2023/11/18 13:13:40;;;;;;;3.47;2.30;;;;;;;;;;774477;179;759559;-70
2023/11/18 13:16:08;;;;;;;4.20;1.77;;;;;;;;;;781445;179;924158;-66
2023/11/18 13:18:38;;;;;;;3.03;1.60;;;;;;;;;;776434;179;919779;-68
2023/11/18 13:21:04;;;;;;;5.03;2.93;;;;;;;;;;775677;178;917811;-67
2023/11/18 13:23:30;;;;;;;5.70;3.77;;;;;;;;;;774540;179;915864;-66
2023/11/18 13:25:59;;;;;;;4.97;3.50;;;;;;;;;;774310;181;625693;-67
2023/11/18 13:28:22;;;;;;;4.30;2.57;;;;;;;;;;777565;177;920066;-68
2023/11/18 13:30:49;;;;;;;5.40;3.00;;;;;;;;;;778954;178;816001;-67
2023/11/18 13:33:14;;;;;;;5.47;3.20;;;;;;;;;;781996;178;918711;-67
2023/11/18 13:35:40;;;;;;;5.30;3.37;;;;;;;;;;777487;178;921400;-67
2023/11/18 13:38:06;;;;;;;8.90;5.00;;;;;;;;;;779576;179;916836;-67
2023/11/18 13:40:37;;;;;;;12.27;4.57;;;;;;;;;;778899;179;946423;-66
2023/11/18 13:43:08;;;;;;;16.43;9.83;;;;;;;;;;774328;178;889379;-66
2023/11/18 13:45:30;;;;;;;6.47;3.17;;;;;;;;;;769246;178;1012818;-67
2023/11/18 13:47:57;;;;;;;5.05;3.58;;;;;;;;;;777901;179;915428;-66
2023/11/18 13:50:21;;;;;;;4.87;3.00;;;;;;;;;;783365;179;916518;-67
2023/11/18 13:52:47;;;;;;;5.33;3.57;;;;;;;;;;774895;179;917035;-67
2023/11/18 13:55:16;;;;;;;5.62;2.70;;;;;;;;;;771639;179;1021769;-66
2023/11/18 13:57:39;;;;;;;4.00;2.70;;;;;;;;;;776939;179;821121;-67
2023/11/18 14:00:05;;;;;;;3.93;2.33;;;;;;;;;;775959;179;920314;-67
2023/11/18 14:02:31;;;;;;;6.27;2.40;;;;;;;;;;778216;179;817408;-68
2023/11/18 14:04:58;;;;;;;4.00;2.30;;;;;;;;;;783037;179;798728;-66
2023/11/18 14:07:24;;;;;;;5.30;3.00;;;;;;;;;;776849;177;919405;-67
2023/11/18 14:09:51;;;;;;;4.47;2.70;;;;;;;;;;775695;179;917039;-67
2023/11/18 14:12:14;;;;;;;6.28;3.30;;;;;;;;;;768267;178;919236;-67
2023/11/18 14:14:41;;;;;;;7.03;3.80;;;;;;;;;;781430;179;916834;-67
2023/11/18 14:17:07;;;;;;;4.60;3.47;;;;;;;;;;773095;177;935382;-67
2023/11/18 14:19:34;;;;;;;5.53;3.37;;;;;;;;;;773434;179;912136;-67
2023/11/18 14:21:58;;;;;;;5.47;3.17;;;;;;;;;;779457;175;920234;-66